Time;durP1;ratioP1;P1;durP2;ratioP2;P2;SDS_P1;SDS_P2;PMS_P1;PMS_P2;Temp;Humidity;BMP_temperature;BMP_pressure;BME280_temperature;BME280_humidity;BME280_pressure;Samples;Min_cycle;Max_cycle;Signal;HPM_P1;HPM_P2
2023/01/27 00:02:29;;;;;;;19.85;15.55;;;;;;;;;;10098370;28;20394;-63
2023/01/27 00:07:23;;;;;;;32.70;16.23;;;;;;;;;;10075685;28;20045;-64
2023/01/27 00:17:36;;;;;;;21.13;15.27;;;;;;;;;;10095082;28;20143;-64
2023/01/27 00:27:41;;;;;;;16.90;13.30;;;;;;;;;;10092579;28;20053;-63
2023/01/27 00:37:46;;;;;;;19.83;14.00;;;;;;;;;;10093831;28;20528;-63
2023/01/27 00:42:39;;;;;;;19.08;14.70;;;;;;;;;;10097531;28;20055;-63
2023/01/27 00:47:32;;;;;;;16.40;13.27;;;;;;;;;;10119310;28;20061;-62
2023/01/27 00:52:26;;;;;;;20.80;13.95;;;;;;;;;;10086755;28;20042;-63
2023/01/27 00:57:20;;;;;;;22.80;14.23;;;;;;;;;;10077526;28;20103;-63
2023/01/27 01:02:14;;;;;;;17.92;13.95;;;;;;;;;;10083940;28;20053;-63
2023/01/27 01:07:07;;;;;;;20.15;14.15;;;;;;;;;;10087528;28;20049;-63
2023/01/27 01:12:00;;;;;;;19.92;14.68;;;;;;;;;;10112514;28;20489;-63
2023/01/27 01:16:55;;;;;;;16.95;12.32;;;;;;;;;;10094136;28;20045;-63
2023/01/27 01:21:47;;;;;;;18.98;14.27;;;;;;;;;;10099315;28;20144;-64
2023/01/27 01:26:41;;;;;;;20.08;14.40;;;;;;;;;;10089635;28;20422;-63
2023/01/27 01:31:34;;;;;;;25.33;13.90;;;;;;;;;;10094551;28;20053;-63
2023/01/27 01:36:28;;;;;;;20.60;14.10;;;;;;;;;;10096986;28;20041;-63
2023/01/27 01:41:21;;;;;;;22.77;14.60;;;;;;;;;;10088119;28;20107;-63
2023/01/27 01:46:15;;;;;;;20.25;13.23;;;;;;;;;;10092023;28;20045;-63
2023/01/27 01:51:28;;;;;;;21.02;15.25;;;;;;;;;;10082544;28;20507;-62
2023/01/27 01:56:48;;;;;;;27.73;16.10;;;;;;;;;;10100295;28;20112;-63
2023/01/27 02:01:41;;;;;;;25.65;17.02;;;;;;;;;;10093106;28;20053;-63
2023/01/27 02:06:53;;;;;;;21.20;16.67;;;;;;;;;;10088147;28;20144;-63
2023/01/27 02:11:51;;;;;;;24.90;15.90;;;;;;;;;;10122093;28;20033;-63
2023/01/27 02:16:44;;;;;;;25.00;17.00;;;;;;;;;;10120364;28;20045;-63
2023/01/27 02:21:37;;;;;;;22.60;16.27;;;;;;;;;;10097859;28;20508;-63
2023/01/27 02:26:36;;;;;;;24.33;17.38;;;;;;;;;;10090742;28;20131;-62
2023/01/27 02:31:30;;;;;;;20.60;16.73;;;;;;;;;;10087078;28;20049;-62
2023/01/27 02:36:26;;;;;;;24.65;17.10;;;;;;;;;;10078915;28;20084;-63
2023/01/27 02:41:52;;;;;;;18.70;15.95;;;;;;;;;;10084924;28;20057;-62
2023/01/27 02:46:47;;;;;;;24.52;17.52;;;;;;;;;;10099570;28;20045;-63
2023/01/27 02:51:40;;;;;;;21.73;15.52;;;;;;;;;;10102360;28;20061;-63
2023/01/27 02:56:33;;;;;;;22.42;16.73;;;;;;;;;;10085164;28;20053;-62
2023/01/27 03:01:27;;;;;;;17.30;13.13;;;;;;;;;;10101722;28;20040;-63
2023/01/27 03:06:23;;;;;;;20.13;13.80;;;;;;;;;;10086374;28;20049;-63
2023/01/27 03:12:18;;;;;;;32.35;13.73;;;;;;;;;;10105231;28;20144;-63
2023/01/27 03:21:44;;;;;;;24.55;14.93;;;;;;;;;;10055557;28;20052;-62
2023/01/27 03:26:37;;;;;;;29.13;14.93;;;;;;;;;;10090097;28;20045;-62
2023/01/27 03:31:32;;;;;;;22.73;13.65;;;;;;;;;;10104862;28;20041;-63
2023/01/27 03:46:51;;;;;;;20.20;13.77;;;;;;;;;;10074519;28;20050;-62
2023/01/27 03:51:44;;;;;;;16.75;12.75;;;;;;;;;;10091114;28;20053;-62
2023/01/27 03:56:38;;;;;;;17.70;14.32;;;;;;;;;;10089742;28;20378;-63
2023/01/27 04:01:30;;;;;;;18.13;13.23;;;;;;;;;;10099045;28;20077;-62
2023/01/27 04:11:54;;;;;;;20.05;13.05;;;;;;;;;;10123852;28;20057;-62
2023/01/27 04:16:47;;;;;;;15.70;11.82;;;;;;;;;;10087103;28;20506;-62
2023/01/27 04:21:41;;;;;;;12.45;10.82;;;;;;;;;;10100014;28;20060;-63
2023/01/27 04:26:34;;;;;;;14.65;11.70;;;;;;;;;;10089597;28;20053;-63
2023/01/27 04:31:27;;;;;;;14.70;10.15;;;;;;;;;;10089599;28;20049;-62
2023/01/27 04:36:20;;;;;;;15.32;10.60;;;;;;;;;;10090399;28;20490;-63
2023/01/27 04:41:14;;;;;;;15.52;11.07;;;;;;;;;;10092068;28;20049;-63
2023/01/27 04:46:08;;;;;;;13.20;10.85;;;;;;;;;;10104493;28;20049;-62
2023/01/27 04:51:02;;;;;;;13.65;10.50;;;;;;;;;;10127670;28;20425;-62
2023/01/27 04:56:02;;;;;;;13.30;10.20;;;;;;;;;;10107742;28;20102;-62
2023/01/27 05:00:54;;;;;;;;;;;;;;;;;;10103727;28;20057;-63
2023/01/27 05:05:47;;;;;;;16.45;9.20;;;;;;;;;;10107202;28;19921;-63
2023/01/27 05:10:45;;;;;;;17.35;11.13;;;;;;;;;;10079484;28;20521;-62
2023/01/27 05:16:07;;;;;;;16.13;10.85;;;;;;;;;;10085418;28;20042;-62
2023/01/27 05:21:02;;;;;;;16.45;10.13;;;;;;;;;;10082052;28;20064;-63
2023/01/27 05:25:55;;;;;;;12.90;8.95;;;;;;;;;;10082660;28;20127;-62
2023/01/27 05:30:48;;;;;;;19.50;10.60;;;;;;;;;;10077302;28;20106;-63
2023/01/27 05:35:42;;;;;;;14.57;11.45;;;;;;;;;;10076938;28;20041;-62
2023/01/27 05:40:35;;;;;;;13.85;8.93;;;;;;;;;;10075065;28;20127;-62
2023/01/27 05:45:28;;;;;;;16.42;9.55;;;;;;;;;;10124616;28;20041;-62
2023/01/27 05:50:22;;;;;;;15.07;10.60;;;;;;;;;;10105632;28;20065;-62
2023/01/27 05:55:16;;;;;;;12.57;9.35;;;;;;;;;;10091805;28;20157;-62
2023/01/27 06:00:11;;;;;;;12.57;8.63;;;;;;;;;;10076811;28;20081;-62
2023/01/27 06:05:05;;;;;;;12.57;10.02;;;;;;;;;;10087266;28;20049;-62
2023/01/27 06:09:58;;;;;;;13.07;10.52;;;;;;;;;;10096133;28;20095;-62
2023/01/27 06:14:54;;;;;;;17.63;12.57;;;;;;;;;;10082242;28;20040;-62
2023/01/27 06:19:47;;;;;;;21.58;12.55;;;;;;;;;;10091023;28;20518;-62
2023/01/27 06:24:41;;;;;;;16.40;11.27;;;;;;;;;;10094271;28;20053;-63
2023/01/27 06:29:34;;;;;;;17.08;10.38;;;;;;;;;;10093267;28;20042;-63
2023/01/27 06:34:28;;;;;;;17.98;9.70;;;;;;;;;;10097767;28;20060;-63
2023/01/27 06:39:22;;;;;;;16.20;11.48;;;;;;;;;;10083699;28;20053;-62
2023/01/27 06:44:16;;;;;;;15.40;10.57;;;;;;;;;;10089063;28;20084;-63
2023/01/27 06:49:10;;;;;;;16.92;10.85;;;;;;;;;;10091911;28;20053;-63
2023/01/27 06:54:04;;;;;;;17.17;11.40;;;;;;;;;;10086353;28;20049;-63
2023/01/27 06:58:57;;;;;;;16.15;11.70;;;;;;;;;;10086658;28;20053;-62
2023/01/27 07:03:51;;;;;;;18.33;12.57;;;;;;;;;;10084903;28;20045;-63
2023/01/27 07:08:45;;;;;;;23.92;11.88;;;;;;;;;;10085536;28;20040;-63
2023/01/27 07:13:39;;;;;;;22.08;14.32;;;;;;;;;;10090807;28;20045;-62
2023/01/27 07:18:32;;;;;;;17.23;12.75;;;;;;;;;;10083102;28;20064;-62
2023/01/27 07:23:25;;;;;;;17.65;13.48;;;;;;;;;;10087440;28;20410;-63
2023/01/27 07:28:19;;;;;;;21.48;11.85;;;;;;;;;;10102081;28;20041;-62
2023/01/27 07:33:14;;;;;;;23.25;17.30;;;;;;;;;;10103782;28;20765;-62
2023/01/27 07:38:08;;;;;;;23.25;13.40;;;;;;;;;;10094372;28;20045;-62
2023/01/27 07:43:02;;;;;;;24.67;12.70;;;;;;;;;;10095313;28;20081;-62
2023/01/27 07:48:24;;;;;;;17.40;11.25;;;;;;;;;;10095309;28;20049;-63
2023/01/27 07:53:18;;;;;;;14.05;11.25;;;;;;;;;;10095560;28;20275;-63
2023/01/27 07:58:11;;;;;;;20.20;10.00;;;;;;;;;;10092553;28;20426;-63
2023/01/27 08:03:04;;;;;;;13.30;8.18;;;;;;;;;;10090120;28;20046;-63
2023/01/27 08:08:02;;;;;;;16.50;9.63;;;;;;;;;;10084416;28;20386;-63
2023/01/27 08:12:56;;;;;;;15.40;8.68;;;;;;;;;;10094616;28;20076;-63
2023/01/27 08:17:54;;;;;;;14.82;9.30;;;;;;;;;;10071009;28;20490;-63
2023/01/27 08:22:47;;;;;;;26.00;10.88;;;;;;;;;;10073210;28;20111;-63
2023/01/27 08:27:41;;;;;;;15.15;9.00;;;;;;;;;;10068842;28;20056;-63
2023/01/27 08:32:34;;;;;;;10.32;8.30;;;;;;;;;;10069136;28;20057;-63
2023/01/27 08:37:28;;;;;;;13.68;9.85;;;;;;;;;;10093859;28;20060;-63
2023/01/27 08:42:21;;;;;;;11.77;9.00;;;;;;;;;;10083098;28;20041;-63
2023/01/27 08:47:14;;;;;;;13.20;10.35;;;;;;;;;;10093227;28;20493;-63
2023/01/27 08:52:08;;;;;;;11.15;8.10;;;;;;;;;;10101536;28;20049;-63
2023/01/27 08:57:02;;;;;;;13.88;8.63;;;;;;;;;;10091799;28;20073;-63
2023/01/27 09:01:55;;;;;;;16.60;9.65;;;;;;;;;;10090498;28;20095;-63
2023/01/27 09:06:52;;;;;;;14.10;10.02;;;;;;;;;;10079351;28;20510;-65
2023/01/27 09:11:46;;;;;;;18.00;10.55;;;;;;;;;;10075692;28;20038;-64
2023/01/27 09:16:39;;;;;;;12.15;7.72;;;;;;;;;;10071399;28;20072;-65
2023/01/27 09:21:33;;;;;;;14.73;7.82;;;;;;;;;;10104164;28;20052;-65
2023/01/27 09:26:25;;;;;;;9.90;7.32;;;;;;;;;;10075833;28;20048;-64
2023/01/27 09:31:19;;;;;;;9.82;6.60;;;;;;;;;;10103782;28;20094;-65
2023/01/27 09:36:16;;;;;;;9.98;6.07;;;;;;;;;;10090159;28;20055;-65
2023/01/27 09:41:16;;;;;;;11.40;8.82;;;;;;;;;;10070956;28;20125;-64
2023/01/27 09:46:30;;;;;;;11.60;6.65;;;;;;;;;;10083630;28;20041;-64
2023/01/27 09:51:35;;;;;;;22.55;9.10;;;;;;;;;;10071088;28;20057;-65
2023/01/27 09:56:39;;;;;;;8.10;6.47;;;;;;;;;;10075948;28;20559;-65
2023/01/27 10:01:50;;;;;;;11.13;7.30;;;;;;;;;;10077079;28;20087;-65
2023/01/27 10:06:55;;;;;;;11.48;7.43;;;;;;;;;;10070732;28;20127;-64
2023/01/27 10:11:54;;;;;;;15.88;8.13;;;;;;;;;;10077927;28;20418;-64
2023/01/27 10:17:10;;;;;;;13.68;8.07;;;;;;;;;;10080206;28;20141;-65
2023/01/27 10:22:12;;;;;;;9.15;6.28;;;;;;;;;;10086714;28;20608;-65
2023/01/27 10:27:19;;;;;;;9.95;6.38;;;;;;;;;;10109794;28;20040;-64
2023/01/27 10:32:17;;;;;;;10.40;6.85;;;;;;;;;;10103535;28;20057;-64
2023/01/27 10:37:23;;;;;;;8.82;6.80;;;;;;;;;;10090076;28;20055;-64
2023/01/27 10:42:42;;;;;;;10.93;7.80;;;;;;;;;;10088261;28;20138;-65
2023/01/27 10:48:02;;;;;;;13.00;7.15;;;;;;;;;;10103969;28;20083;-64
2023/01/27 10:53:01;;;;;;;9.18;6.97;;;;;;;;;;10090260;28;20038;-65
2023/01/27 10:57:58;;;;;;;9.85;6.57;;;;;;;;;;10103381;28;20041;-65
2023/01/27 11:03:25;;;;;;;8.53;6.60;;;;;;;;;;10060547;28;20517;-66
2023/01/27 11:08:32;;;;;;;11.68;6.80;;;;;;;;;;10087820;28;20418;-65
2023/01/27 11:13:28;;;;;;;17.10;7.70;;;;;;;;;;10070080;28;20038;-64
2023/01/27 11:18:27;;;;;;;10.25;6.57;;;;;;;;;;10077186;28;20095;-64
2023/01/27 11:23:28;;;;;;;8.60;6.32;;;;;;;;;;10095716;28;20052;-64
2023/01/27 11:28:41;;;;;;;11.40;5.47;;;;;;;;;;10099874;28;20095;-64
2023/01/27 11:33:56;;;;;;;8.98;6.07;;;;;;;;;;10082566;28;20506;-64
2023/01/27 11:38:51;;;;;;;10.45;6.80;;;;;;;;;;10076924;28;20535;-64
2023/01/27 11:43:44;;;;;;;10.10;6.75;;;;;;;;;;10077266;28;20060;-66
2023/01/27 11:48:56;;;;;;;11.32;7.07;;;;;;;;;;10070445;28;20058;-66
2023/01/27 11:54:14;;;;;;;14.88;6.80;;;;;;;;;;10114704;28;20049;-66
2023/01/27 11:59:25;;;;;;;10.85;5.80;;;;;;;;;;10091152;28;20044;-66
2023/01/27 12:04:23;;;;;;;13.18;6.85;;;;;;;;;;10073210;28;20052;-66
2023/01/27 12:09:33;;;;;;;8.75;6.45;;;;;;;;;;10082108;28;20057;-67
2023/01/27 12:14:27;;;;;;;10.27;6.47;;;;;;;;;;10082816;28;20041;-64
2023/01/27 12:19:40;;;;;;;5.80;4.50;;;;;;;;;;10088818;28;20558;-67
2023/01/27 12:24:54;;;;;;;7.55;4.40;;;;;;;;;;10099489;28;20110;-67
2023/01/27 12:29:54;;;;;;;7.80;4.97;;;;;;;;;;10093752;28;20053;-66
2023/01/27 12:34:55;;;;;;;7.45;5.63;;;;;;;;;;10075229;28;20426;-66
2023/01/27 12:39:55;;;;;;;10.07;5.22;;;;;;;;;;10076834;28;20132;-67
2023/01/27 12:44:49;;;;;;;8.77;4.47;;;;;;;;;;10076098;28;20052;-67
2023/01/27 12:49:43;;;;;;;5.82;3.90;;;;;;;;;;10074939;28;20052;-66
2023/01/27 12:54:38;;;;;;;7.18;4.70;;;;;;;;;;10090937;28;20110;-65
2023/01/27 12:59:32;;;;;;;8.55;4.03;;;;;;;;;;10081683;28;20160;-65
2023/01/27 13:04:26;;;;;;;6.32;3.65;;;;;;;;;;10089515;28;20050;-66
2023/01/27 13:09:53;;;;;;;6.25;4.78;;;;;;;;;;10094124;28;20049;-66
2023/01/27 13:14:52;;;;;;;9.00;4.97;;;;;;;;;;10097362;28;20076;-65
2023/01/27 13:19:47;;;;;;;9.48;4.90;;;;;;;;;;10079401;28;20052;-65
2023/01/27 13:24:41;;;;;;;7.50;3.15;;;;;;;;;;10110843;28;20110;-65
2023/01/27 13:29:34;;;;;;;6.63;4.65;;;;;;;;;;10105405;28;20670;-66
2023/01/27 13:34:49;;;;;;;6.03;4.80;;;;;;;;;;10107173;28;20049;-65
2023/01/27 13:40:13;;;;;;;7.93;4.78;;;;;;;;;;10086723;28;20059;-66
2023/01/27 13:45:19;;;;;;;8.27;4.25;;;;;;;;;;10096512;28;20549;-66
2023/01/27 13:50:34;;;;;;;8.05;4.47;;;;;;;;;;10091204;28;20552;-66
2023/01/27 13:55:51;;;;;;;6.35;4.28;;;;;;;;;;10096243;28;20114;-65
2023/01/27 14:00:54;;;;;;;4.75;4.15;;;;;;;;;;10082072;28;20060;-66
2023/01/27 14:06:10;;;;;;;7.70;4.88;;;;;;;;;;10076333;28;20465;-67
2023/01/27 14:11:35;;;;;;;6.78;4.78;;;;;;;;;;10072501;28;20043;-67
2023/01/27 14:16:40;;;;;;;4.00;3.40;;;;;;;;;;10072139;28;20053;-67
2023/01/27 14:21:42;;;;;;;5.68;3.15;;;;;;;;;;10079415;28;20413;-66
2023/01/27 14:27:11;;;;;;;8.77;4.27;;;;;;;;;;10098318;28;20523;-66
2023/01/27 14:32:25;;;;;;;8.77;4.88;;;;;;;;;;10102182;28;20096;-65
2023/01/27 14:37:47;;;;;;;7.18;4.13;;;;;;;;;;10085083;28;20052;-65
2023/01/27 14:42:58;;;;;;;6.72;3.88;;;;;;;;;;10095436;28;20084;-66
2023/01/27 14:48:00;;;;;;;6.07;4.32;;;;;;;;;;10086066;28;20107;-64
2023/01/27 14:53:23;;;;;;;5.78;4.22;;;;;;;;;;10089706;28;20041;-65
2023/01/27 14:58:36;;;;;;;7.63;3.83;;;;;;;;;;10095467;28;20045;-64
2023/01/27 15:03:37;;;;;;;5.88;3.70;;;;;;;;;;10085832;28;20064;-66
2023/01/27 15:08:33;;;;;;;4.97;4.40;;;;;;;;;;10086223;28;20075;-64
2023/01/27 15:13:37;;;;;;;10.15;4.78;;;;;;;;;;10083530;28;20099;-66
2023/01/27 15:18:56;;;;;;;6.50;5.05;;;;;;;;;;10088816;28;20573;-65
2023/01/27 15:23:54;;;;;;;5.97;4.83;;;;;;;;;;10091641;28;20490;-65
2023/01/27 15:29:08;;;;;;;8.15;4.65;;;;;;;;;;10082794;28;20107;-64
2023/01/27 15:34:03;;;;;;;8.15;5.60;;;;;;;;;;10084839;28;20072;-65
2023/01/27 15:38:59;;;;;;;5.68;5.05;;;;;;;;;;10092302;28;20075;-64
2023/01/27 15:44:17;;;;;;;6.68;5.20;;;;;;;;;;10096434;28;20054;-64
2023/01/27 15:49:35;;;;;;;6.35;4.72;;;;;;;;;;10089457;28;20057;-65
2023/01/27 15:54:30;;;;;;;11.10;5.13;;;;;;;;;;10112401;28;20771;-65
2023/01/27 15:59:26;;;;;;;9.18;6.63;;;;;;;;;;10092146;28;20140;-65
2023/01/27 16:04:26;;;;;;;12.90;9.02;;;;;;;;;;10083349;28;20064;-65
2023/01/27 16:09:51;;;;;;;;;;;;;;;;;;10078643;28;20396;-63
2023/01/27 16:14:46;;;;;;;15.68;10.05;;;;;;;;;;10080861;28;19921;-65
2023/01/27 16:20:07;;;;;;;20.88;12.77;;;;;;;;;;10103810;28;20094;-65
2023/01/27 16:25:21;;;;;;;21.55;13.75;;;;;;;;;;10091157;28;20075;-65
2023/01/27 16:30:24;;;;;;;12.65;9.90;;;;;;;;;;10072745;28;20073;-66
2023/01/27 16:35:20;;;;;;;13.52;9.90;;;;;;;;;;10089628;28;20076;-65
2023/01/27 16:40:35;;;;;;;18.83;10.93;;;;;;;;;;10083276;28;20530;-62
2023/01/27 16:45:49;;;;;;;15.60;11.00;;;;;;;;;;10077790;28;20056;-63
2023/01/27 16:50:43;;;;;;;17.70;12.27;;;;;;;;;;10111574;28;20106;-66
2023/01/27 16:55:59;;;;;;;21.92;14.13;;;;;;;;;;10096970;28;20121;-66
2023/01/27 17:00:54;;;;;;;14.85;9.10;;;;;;;;;;10075553;28;20061;-67
2023/01/27 17:05:52;;;;;;;17.77;11.25;;;;;;;;;;10085687;28;20076;-65
2023/01/27 17:10:55;;;;;;;15.18;10.45;;;;;;;;;;10081130;28;20045;-65
2023/01/27 17:15:49;;;;;;;16.60;10.35;;;;;;;;;;10090646;28;20457;-65
2023/01/27 17:20:45;;;;;;;19.70;9.40;;;;;;;;;;10097314;28;20052;-64
2023/01/27 17:25:40;;;;;;;23.73;11.13;;;;;;;;;;10100606;28;20099;-65
2023/01/27 17:30:38;;;;;;;15.57;11.20;;;;;;;;;;10090662;28;20060;-64
2023/01/27 17:35:38;;;;;;;19.00;15.93;;;;;;;;;;10106340;28;20045;-65
2023/01/27 17:40:37;;;;;;;24.02;16.40;;;;;;;;;;10093735;28;20500;-65
2023/01/27 17:45:31;;;;;;;20.92;13.43;;;;;;;;;;10101077;28;20132;-65
2023/01/27 17:50:29;;;;;;;24.30;13.95;;;;;;;;;;10088781;28;20057;-65
2023/01/27 17:55:25;;;;;;;18.00;13.50;;;;;;;;;;10096009;28;20133;-65
2023/01/27 18:00:28;;;;;;;22.15;15.73;;;;;;;;;;10086778;28;20049;-65
2023/01/27 18:05:23;;;;;;;21.88;12.60;;;;;;;;;;10093872;28;20089;-65
2023/01/27 18:10:33;;;;;;;19.90;11.95;;;;;;;;;;10104558;28;20053;-66
2023/01/27 18:15:35;;;;;;;;;;;;;;;;;;10090705;28;20498;-64
2023/01/27 18:20:52;;;;;;;26.52;21.00;;;;;;;;;;10101744;28;19921;-66
2023/01/27 18:25:48;;;;;;;21.75;16.73;;;;;;;;;;10099590;28;20053;-65
2023/01/27 18:30:48;;;;;;;18.92;13.80;;;;;;;;;;10096370;28;20124;-64
2023/01/27 18:35:42;;;;;;;22.52;15.80;;;;;;;;;;10101827;28;20052;-65
2023/01/27 18:40:37;;;;;;;22.23;14.73;;;;;;;;;;10091756;28;20049;-64
2023/01/27 18:45:30;;;;;;;20.63;13.52;;;;;;;;;;10096429;28;20094;-65
2023/01/27 18:50:24;;;;;;;29.48;21.23;;;;;;;;;;10094239;28;20071;-65
2023/01/27 18:55:23;;;;;;;33.15;21.75;;;;;;;;;;10111571;28;20549;-65
2023/01/27 19:00:21;;;;;;;22.25;14.07;;;;;;;;;;10102092;28;20099;-65
2023/01/27 19:05:20;;;;;;;22.27;15.57;;;;;;;;;;10101633;28;20060;-64
2023/01/27 19:10:35;;;;;;;31.00;14.93;;;;;;;;;;10098303;28;20075;-64
2023/01/27 19:15:50;;;;;;;25.83;15.90;;;;;;;;;;10093888;28;20080;-66
2023/01/27 19:20:43;;;;;;;47.35;27.45;;;;;;;;;;10080563;28;20057;-63
2023/01/27 19:25:37;;;;;;;24.23;16.63;;;;;;;;;;10085073;28;20115;-64
2023/01/27 19:30:34;;;;;;;18.60;13.57;;;;;;;;;;10086336;28;20059;-63
2023/01/27 19:35:32;;;;;;;19.50;13.05;;;;;;;;;;10088669;28;20050;-66
2023/01/27 19:40:28;;;;;;;19.57;13.77;;;;;;;;;;10083951;28;20044;-63
2023/01/27 19:45:22;;;;;;;21.02;14.45;;;;;;;;;;10084871;28;20084;-69
2023/01/27 19:50:16;;;;;;;16.52;12.48;;;;;;;;;;10087922;28;20469;-64
2023/01/27 19:55:10;;;;;;;15.77;14.10;;;;;;;;;;10091125;28;20124;-66
2023/01/27 20:00:04;;;;;;;19.15;12.27;;;;;;;;;;10092112;28;20056;-65
2023/01/27 20:05:03;;;;;;;15.75;12.95;;;;;;;;;;10101238;28;20502;-66
2023/01/27 20:09:56;;;;;;;23.20;16.52;;;;;;;;;;10097131;28;20041;-67
2023/01/27 20:14:50;;;;;;;30.02;22.80;;;;;;;;;;10089572;28;20083;-64
2023/01/27 20:19:46;;;;;;;21.55;15.93;;;;;;;;;;10093073;28;20057;-63
2023/01/27 20:24:40;;;;;;;20.20;16.02;;;;;;;;;;10087472;28;20041;-63
2023/01/27 20:29:35;;;;;;;25.38;17.83;;;;;;;;;;10084248;28;20532;-63
2023/01/27 20:34:28;;;;;;;18.85;14.88;;;;;;;;;;10086109;28;20054;-63
2023/01/27 20:39:22;;;;;;;23.85;17.60;;;;;;;;;;10090042;28;20557;-62
2023/01/27 20:44:17;;;;;;;22.02;17.00;;;;;;;;;;10099125;28;20048;-62
2023/01/27 20:49:10;;;;;;;19.77;14.43;;;;;;;;;;10085076;28;20110;-62
2023/01/27 20:54:05;;;;;;;19.08;15.52;;;;;;;;;;10093252;28;20048;-63
2023/01/27 20:59:00;;;;;;;32.58;19.13;;;;;;;;;;10096081;28;20049;-62
2023/01/27 21:03:53;;;;;;;19.02;16.35;;;;;;;;;;10097763;28;20046;-65
2023/01/27 21:08:48;;;;;;;22.98;18.67;;;;;;;;;;10096062;28;20084;-63
2023/01/27 21:13:41;;;;;;;31.15;19.10;;;;;;;;;;10090904;28;20132;-63
2023/01/27 21:18:36;;;;;;;24.45;16.75;;;;;;;;;;10092488;28;20486;-63
2023/01/27 21:23:31;;;;;;;22.38;14.88;;;;;;;;;;10092496;28;20503;-62
2023/01/27 21:28:26;;;;;;;18.55;13.15;;;;;;;;;;10085342;28;20045;-63
2023/01/27 21:33:22;;;;;;;23.10;12.18;;;;;;;;;;10090055;28;20408;-63
2023/01/27 21:38:17;;;;;;;22.05;15.07;;;;;;;;;;10091368;28;20838;-65
2023/01/27 21:48:22;;;;;;;15.35;10.07;;;;;;;;;;10085843;28;20064;-64
2023/01/27 21:53:15;;;;;;;11.20;10.05;;;;;;;;;;10099068;28;20091;-64
2023/01/27 21:58:09;;;;;;;17.23;12.02;;;;;;;;;;10090767;28;20094;-65
2023/01/27 22:03:03;;;;;;;14.77;12.55;;;;;;;;;;10102826;28;20052;-65
2023/01/27 22:07:57;;;;;;;15.43;11.95;;;;;;;;;;10094843;28;20049;-66
2023/01/27 22:12:50;;;;;;;15.55;11.57;;;;;;;;;;10094968;28;20037;-65
2023/01/27 22:17:44;;;;;;;14.57;9.75;;;;;;;;;;10095116;28;20483;-66
2023/01/27 22:22:38;;;;;;;14.45;11.02;;;;;;;;;;10095731;28;20119;-67
2023/01/27 22:27:31;;;;;;;15.05;12.20;;;;;;;;;;10093280;28;20468;-67
2023/01/27 22:32:25;;;;;;;18.10;12.60;;;;;;;;;;10091076;28;20053;-65
2023/01/27 22:37:18;;;;;;;15.43;12.20;;;;;;;;;;10086427;28;20053;-65
2023/01/27 22:42:11;;;;;;;20.38;12.65;;;;;;;;;;10081289;28;20509;-66
2023/01/27 22:47:04;;;;;;;15.18;12.15;;;;;;;;;;10073110;28;20045;-66
2023/01/27 22:51:59;;;;;;;17.02;11.80;;;;;;;;;;10073459;28;20078;-65
2023/01/27 22:56:52;;;;;;;19.30;13.95;;;;;;;;;;10087294;28;20128;-66
2023/01/27 23:01:46;;;;;;;16.02;11.27;;;;;;;;;;10104981;28;20057;-66
2023/01/27 23:06:39;;;;;;;14.45;10.32;;;;;;;;;;10094167;28;20060;-67
2023/01/27 23:11:33;;;;;;;12.20;9.95;;;;;;;;;;10086234;28;20049;-66
2023/01/27 23:16:26;;;;;;;18.35;10.77;;;;;;;;;;10082664;28;20045;-66
2023/01/27 23:21:19;;;;;;;13.23;11.65;;;;;;;;;;10076787;28;20050;-66
2023/01/27 23:26:14;;;;;;;13.48;10.63;;;;;;;;;;10083802;28;20498;-66
2023/01/27 23:31:09;;;;;;;14.40;10.57;;;;;;;;;;10075391;28;20060;-66
2023/01/27 23:36:03;;;;;;;12.85;11.05;;;;;;;;;;10072498;28;20401;-66
2023/01/27 23:41:04;;;;;;;14.48;10.68;;;;;;;;;;10085623;28;20128;-66
2023/01/27 23:45:57;;;;;;;14.48;11.68;;;;;;;;;;10082557;28;20567;-66
2023/01/27 23:50:50;;;;;;;14.40;10.88;;;;;;;;;;10074802;28;20510;-65
2023/01/27 23:55:53;;;;;;;14.82;11.23;;;;;;;;;;10106152;28;20049;-66
